sensor_id;sensor_type;location;lat;lon;timestamp;P1;durP1;ratioP1;P2;durP2;ratioP2
13975;SDS011;7062;49.792;9.946;2023-11-19T00:00:24;4.17;;;3.37;;
13975;SDS011;7062;49.792;9.946;2023-11-19T00:02:51;4.23;;;2.87;;
13975;SDS011;7062;49.792;9.946;2023-11-19T00:05:19;4.07;;;3.30;;
13975;SDS011;7062;49.792;9.946;2023-11-19T00:07:45;3.93;;;3.40;;
13975;SDS011;7062;49.792;9.946;2023-11-19T00:10:13;6.33;;;3.60;;
13975;SDS011;7062;49.792;9.946;2023-11-19T00:12:44;4.20;;;3.80;;
13975;SDS011;7062;49.792;9.946;2023-11-19T00:15:12;5.53;;;3.10;;
13975;SDS011;7062;49.792;9.946;2023-11-19T00:17:41;3.47;;;2.63;;
13975;SDS011;7062;49.792;9.946;2023-11-19T00:20:21;3.30;;;3.00;;
13975;SDS011;7062;49.792;9.946;2023-11-19T00:22:47;3.43;;;3.10;;
13975;SDS011;7062;49.792;9.946;2023-11-19T00:25:15;3.67;;;3.37;;
13975;SDS011;7062;49.792;9.946;2023-11-19T00:27:42;6.87;;;3.10;;
13975;SDS011;7062;49.792;9.946;2023-11-19T00:30:11;2.70;;;2.50;;
13975;SDS011;7062;49.792;9.946;2023-11-19T00:32:37;3.67;;;2.97;;
13975;SDS011;7062;49.792;9.946;2023-11-19T00:35:04;3.43;;;2.87;;
13975;SDS011;7062;49.792;9.946;2023-11-19T00:37:31;5.50;;;3.60;;
13975;SDS011;7062;49.792;9.946;2023-11-19T00:39:57;4.10;;;2.97;;
13975;SDS011;7062;49.792;9.946;2023-11-19T00:42:24;3.50;;;3.20;;
13975;SDS011;7062;49.792;9.946;2023-11-19T00:44:50;5.83;;;3.50;;
13975;SDS011;7062;49.792;9.946;2023-11-19T00:47:16;4.17;;;2.57;;
13975;SDS011;7062;49.792;9.946;2023-11-19T00:49:45;3.90;;;3.33;;
13975;SDS011;7062;49.792;9.946;2023-11-19T00:52:14;4.10;;;3.70;;
13975;SDS011;7062;49.792;9.946;2023-11-19T00:54:40;5.83;;;3.87;;
13975;SDS011;7062;49.792;9.946;2023-11-19T00:57:06;5.80;;;3.57;;
13975;SDS011;7062;49.792;9.946;2023-11-19T00:59:31;6.37;;;3.60;;
13975;SDS011;7062;49.792;9.946;2023-11-19T01:01:58;6.20;;;3.83;;
13975;SDS011;7062;49.792;9.946;2023-11-19T01:04:28;4.23;;;3.40;;
13975;SDS011;7062;49.792;9.946;2023-11-19T01:07:01;3.40;;;3.10;;
13975;SDS011;7062;49.792;9.946;2023-11-19T01:09:37;6.07;;;4.37;;
13975;SDS011;7062;49.792;9.946;2023-11-19T01:12:03;3.80;;;3.00;;
13975;SDS011;7062;49.792;9.946;2023-11-19T01:14:29;7.27;;;3.43;;
13975;SDS011;7062;49.792;9.946;2023-11-19T01:16:55;4.57;;;3.10;;
13975;SDS011;7062;49.792;9.946;2023-11-19T01:19:22;4.60;;;2.73;;
13975;SDS011;7062;49.792;9.946;2023-11-19T01:21:48;3.83;;;3.10;;
13975;SDS011;7062;49.792;9.946;2023-11-19T01:24:14;4.50;;;2.70;;
13975;SDS011;7062;49.792;9.946;2023-11-19T01:26:40;3.13;;;2.83;;
13975;SDS011;7062;49.792;9.946;2023-11-19T01:29:14;4.43;;;4.03;;
13975;SDS011;7062;49.792;9.946;2023-11-19T01:31:40;5.90;;;4.80;;
13975;SDS011;7062;49.792;9.946;2023-11-19T01:34:07;4.43;;;3.67;;
13975;SDS011;7062;49.792;9.946;2023-11-19T01:36:33;3.03;;;2.40;;
13975;SDS011;7062;49.792;9.946;2023-11-19T01:38:58;4.00;;;2.23;;
13975;SDS011;7062;49.792;9.946;2023-11-19T01:41:24;2.90;;;2.47;;
13975;SDS011;7062;49.792;9.946;2023-11-19T01:43:50;3.20;;;1.87;;
13975;SDS011;7062;49.792;9.946;2023-11-19T01:46:15;3.00;;;2.70;;
13975;SDS011;7062;49.792;9.946;2023-11-19T01:48:45;2.30;;;2.10;;
13975;SDS011;7062;49.792;9.946;2023-11-19T01:51:14;2.37;;;2.13;;
13975;SDS011;7062;49.792;9.946;2023-11-19T01:53:41;4.80;;;2.33;;
13975;SDS011;7062;49.792;9.946;2023-11-19T01:56:09;2.77;;;2.40;;
13975;SDS011;7062;49.792;9.946;2023-11-19T01:58:38;3.13;;;1.80;;
13975;SDS011;7062;49.792;9.946;2023-11-19T02:01:06;2.20;;;1.87;;
13975;SDS011;7062;49.792;9.946;2023-11-19T02:03:32;1.47;;;1.20;;
13975;SDS011;7062;49.792;9.946;2023-11-19T02:05:59;2.30;;;1.93;;
13975;SDS011;7062;49.792;9.946;2023-11-19T02:08:25;2.87;;;2.53;;
13975;SDS011;7062;49.792;9.946;2023-11-19T02:10:51;2.47;;;1.27;;
13975;SDS011;7062;49.792;9.946;2023-11-19T02:13:18;2.17;;;1.53;;
13975;SDS011;7062;49.792;9.946;2023-11-19T02:15:44;1.33;;;1.13;;
13975;SDS011;7062;49.792;9.946;2023-11-19T02:18:19;1.93;;;1.30;;
13975;SDS011;7062;49.792;9.946;2023-11-19T02:20:46;2.60;;;0.80;;
13975;SDS011;7062;49.792;9.946;2023-11-19T02:23:15;1.00;;;0.90;;
13975;SDS011;7062;49.792;9.946;2023-11-19T02:25:43;1.80;;;0.90;;
13975;SDS011;7062;49.792;9.946;2023-11-19T02:28:12;1.07;;;0.90;;
13975;SDS011;7062;49.792;9.946;2023-11-19T02:30:39;1.37;;;0.97;;
13975;SDS011;7062;49.792;9.946;2023-11-19T02:33:07;0.97;;;0.90;;
13975;SDS011;7062;49.792;9.946;2023-11-19T02:35:33;0.90;;;0.83;;
13975;SDS011;7062;49.792;9.946;2023-11-19T02:37:59;1.10;;;0.77;;
13975;SDS011;7062;49.792;9.946;2023-11-19T02:40:32;1.20;;;0.73;;
13975;SDS011;7062;49.792;9.946;2023-11-19T02:42:57;1.20;;;0.73;;
13975;SDS011;7062;49.792;9.946;2023-11-19T02:45:23;0.83;;;0.80;;
13975;SDS011;7062;49.792;9.946;2023-11-19T02:47:51;1.30;;;0.73;;
13975;SDS011;7062;49.792;9.946;2023-11-19T02:50:18;0.70;;;0.70;;
13975;SDS011;7062;49.792;9.946;2023-11-19T02:52:50;0.93;;;0.80;;
13975;SDS011;7062;49.792;9.946;2023-11-19T02:55:21;0.70;;;0.70;;
13975;SDS011;7062;49.792;9.946;2023-11-19T02:57:49;0.60;;;0.60;;
13975;SDS011;7062;49.792;9.946;2023-11-19T03:00:16;0.60;;;0.60;;
13975;SDS011;7062;49.792;9.946;2023-11-19T03:02:42;0.50;;;0.50;;
13975;SDS011;7062;49.792;9.946;2023-11-19T03:05:11;0.60;;;0.60;;
13975;SDS011;7062;49.792;9.946;2023-11-19T03:07:40;0.60;;;0.60;;
13975;SDS011;7062;49.792;9.946;2023-11-19T03:10:07;1.13;;;0.70;;
13975;SDS011;7062;49.792;9.946;2023-11-19T03:12:34;0.50;;;0.50;;
13975;SDS011;7062;49.792;9.946;2023-11-19T03:15:00;0.50;;;0.50;;
13975;SDS011;7062;49.792;9.946;2023-11-19T03:17:26;0.80;;;0.50;;
13975;SDS011;7062;49.792;9.946;2023-11-19T03:19:52;0.40;;;0.40;;
13975;SDS011;7062;49.792;9.946;2023-11-19T03:22:17;2.17;;;0.60;;
13975;SDS011;7062;49.792;9.946;2023-11-19T03:24:43;1.50;;;0.60;;
13975;SDS011;7062;49.792;9.946;2023-11-19T03:27:09;0.90;;;0.60;;
13975;SDS011;7062;49.792;9.946;2023-11-19T03:29:35;0.90;;;0.70;;
13975;SDS011;7062;49.792;9.946;2023-11-19T03:32:00;2.03;;;1.37;;
13975;SDS011;7062;49.792;9.946;2023-11-19T03:34:26;4.40;;;3.33;;
13975;SDS011;7062;49.792;9.946;2023-11-19T03:36:52;1.23;;;0.70;;
13975;SDS011;7062;49.792;9.946;2023-11-19T03:39:18;2.83;;;0.40;;
13975;SDS011;7062;49.792;9.946;2023-11-19T03:41:45;0.53;;;0.50;;
13975;SDS011;7062;49.792;9.946;2023-11-19T03:44:12;1.03;;;0.40;;
13975;SDS011;7062;49.792;9.946;2023-11-19T03:46:37;2.10;;;0.60;;
13975;SDS011;7062;49.792;9.946;2023-11-19T03:49:03;1.30;;;0.60;;
13975;SDS011;7062;49.792;9.946;2023-11-19T03:51:31;0.50;;;0.40;;
13975;SDS011;7062;49.792;9.946;2023-11-19T03:53:56;0.40;;;0.37;;
13975;SDS011;7062;49.792;9.946;2023-11-19T03:56:22;0.20;;;0.20;;
13975;SDS011;7062;49.792;9.946;2023-11-19T03:58:48;0.50;;;0.30;;
13975;SDS011;7062;49.792;9.946;2023-11-19T04:01:13;0.47;;;0.33;;
13975;SDS011;7062;49.792;9.946;2023-11-19T04:03:39;0.97;;;0.50;;
13975;SDS011;7062;49.792;9.946;2023-11-19T04:06:05;0.50;;;0.50;;
13975;SDS011;7062;49.792;9.946;2023-11-19T04:08:31;0.50;;;0.47;;
13975;SDS011;7062;49.792;9.946;2023-11-19T04:10:56;0.50;;;0.50;;
13975;SDS011;7062;49.792;9.946;2023-11-19T04:13:22;0.60;;;0.43;;
13975;SDS011;7062;49.792;9.946;2023-11-19T04:15:49;0.30;;;0.30;;
13975;SDS011;7062;49.792;9.946;2023-11-19T04:18:15;1.37;;;0.40;;
13975;SDS011;7062;49.792;9.946;2023-11-19T04:20:41;0.90;;;0.40;;
13975;SDS011;7062;49.792;9.946;2023-11-19T04:23:07;0.47;;;0.30;;
13975;SDS011;7062;49.792;9.946;2023-11-19T04:25:34;0.50;;;0.37;;
13975;SDS011;7062;49.792;9.946;2023-11-19T04:28:01;0.30;;;0.30;;
13975;SDS011;7062;49.792;9.946;2023-11-19T04:30:27;0.40;;;0.40;;
13975;SDS011;7062;49.792;9.946;2023-11-19T04:32:53;0.30;;;0.30;;
13975;SDS011;7062;49.792;9.946;2023-11-19T04:35:19;0.30;;;0.30;;
13975;SDS011;7062;49.792;9.946;2023-11-19T04:37:44;0.77;;;0.60;;
13975;SDS011;7062;49.792;9.946;2023-11-19T04:40:10;0.50;;;0.30;;
13975;SDS011;7062;49.792;9.946;2023-11-19T04:42:37;2.43;;;0.33;;
13975;SDS011;7062;49.792;9.946;2023-11-19T04:45:05;0.30;;;0.30;;
13975;SDS011;7062;49.792;9.946;2023-11-19T04:47:32;0.40;;;0.40;;
13975;SDS011;7062;49.792;9.946;2023-11-19T04:49:58;0.23;;;0.23;;
13975;SDS011;7062;49.792;9.946;2023-11-19T04:52:24;0.30;;;0.30;;
13975;SDS011;7062;49.792;9.946;2023-11-19T04:54:49;0.20;;;0.20;;
13975;SDS011;7062;49.792;9.946;2023-11-19T04:57:15;0.40;;;0.40;;
13975;SDS011;7062;49.792;9.946;2023-11-19T04:59:41;0.30;;;0.30;;
13975;SDS011;7062;49.792;9.946;2023-11-19T05:02:08;0.33;;;0.20;;
13975;SDS011;7062;49.792;9.946;2023-11-19T05:04:34;0.30;;;0.30;;
13975;SDS011;7062;49.792;9.946;2023-11-19T05:07:00;0.40;;;0.40;;
13975;SDS011;7062;49.792;9.946;2023-11-19T05:09:26;0.30;;;0.30;;
13975;SDS011;7062;49.792;9.946;2023-11-19T05:11:52;0.40;;;0.40;;
13975;SDS011;7062;49.792;9.946;2023-11-19T05:14:17;0.63;;;0.40;;
13975;SDS011;7062;49.792;9.946;2023-11-19T05:16:46;0.50;;;0.50;;
13975;SDS011;7062;49.792;9.946;2023-11-19T05:19:12;0.40;;;0.40;;
13975;SDS011;7062;49.792;9.946;2023-11-19T05:21:41;0.50;;;0.50;;
13975;SDS011;7062;49.792;9.946;2023-11-19T05:24:08;0.40;;;0.40;;
13975;SDS011;7062;49.792;9.946;2023-11-19T05:26:34;0.40;;;0.40;;
13975;SDS011;7062;49.792;9.946;2023-11-19T05:28:59;0.50;;;0.40;;
13975;SDS011;7062;49.792;9.946;2023-11-19T05:31:25;0.67;;;0.50;;
13975;SDS011;7062;49.792;9.946;2023-11-19T05:33:51;0.63;;;0.50;;
13975;SDS011;7062;49.792;9.946;2023-11-19T05:36:16;0.60;;;0.50;;
13975;SDS011;7062;49.792;9.946;2023-11-19T05:38:42;0.80;;;0.60;;
13975;SDS011;7062;49.792;9.946;2023-11-19T05:41:09;0.77;;;0.60;;
13975;SDS011;7062;49.792;9.946;2023-11-19T05:43:35;0.60;;;0.60;;
13975;SDS011;7062;49.792;9.946;2023-11-19T05:46:01;0.50;;;0.50;;
13975;SDS011;7062;49.792;9.946;2023-11-19T05:48:26;0.53;;;0.40;;
13975;SDS011;7062;49.792;9.946;2023-11-19T05:50:52;0.77;;;0.40;;
13975;SDS011;7062;49.792;9.946;2023-11-19T05:53:18;0.50;;;0.50;;
13975;SDS011;7062;49.792;9.946;2023-11-19T05:55:44;0.40;;;0.40;;
13975;SDS011;7062;49.792;9.946;2023-11-19T05:58:14;0.63;;;0.60;;
13975;SDS011;7062;49.792;9.946;2023-11-19T06:00:40;0.40;;;0.40;;
13975;SDS011;7062;49.792;9.946;2023-11-19T06:03:06;0.77;;;0.40;;
13975;SDS011;7062;49.792;9.946;2023-11-19T06:05:32;0.40;;;0.40;;
13975;SDS011;7062;49.792;9.946;2023-11-19T06:07:58;0.93;;;0.30;;
13975;SDS011;7062;49.792;9.946;2023-11-19T06:10:24;0.47;;;0.40;;
13975;SDS011;7062;49.792;9.946;2023-11-19T06:12:59;0.40;;;0.40;;
13975;SDS011;7062;49.792;9.946;2023-11-19T06:15:28;0.20;;;0.20;;
13975;SDS011;7062;49.792;9.946;2023-11-19T06:17:53;0.30;;;0.30;;
13975;SDS011;7062;49.792;9.946;2023-11-19T06:20:25;0.30;;;0.30;;
13975;SDS011;7062;49.792;9.946;2023-11-19T06:22:53;0.33;;;0.33;;
13975;SDS011;7062;49.792;9.946;2023-11-19T06:25:19;0.40;;;0.40;;
13975;SDS011;7062;49.792;9.946;2023-11-19T06:27:45;1.60;;;0.30;;
13975;SDS011;7062;49.792;9.946;2023-11-19T06:30:11;0.40;;;0.40;;
13975;SDS011;7062;49.792;9.946;2023-11-19T06:32:37;0.60;;;0.43;;
13975;SDS011;7062;49.792;9.946;2023-11-19T06:35:02;2.10;;;0.40;;
13975;SDS011;7062;49.792;9.946;2023-11-19T06:37:30;0.57;;;0.40;;
13975;SDS011;7062;49.792;9.946;2023-11-19T06:39:55;0.33;;;0.33;;
13975;SDS011;7062;49.792;9.946;2023-11-19T06:42:21;1.07;;;0.60;;
13975;SDS011;7062;49.792;9.946;2023-11-19T06:44:46;0.43;;;0.43;;
13975;SDS011;7062;49.792;9.946;2023-11-19T06:47:12;0.40;;;0.40;;
13975;SDS011;7062;49.792;9.946;2023-11-19T06:49:38;0.50;;;0.50;;
13975;SDS011;7062;49.792;9.946;2023-11-19T06:52:03;0.90;;;0.70;;
13975;SDS011;7062;49.792;9.946;2023-11-19T06:54:29;1.10;;;0.50;;
13975;SDS011;7062;49.792;9.946;2023-11-19T06:56:56;1.13;;;0.60;;
13975;SDS011;7062;49.792;9.946;2023-11-19T06:59:22;0.83;;;0.63;;
13975;SDS011;7062;49.792;9.946;2023-11-19T07:01:48;0.50;;;0.50;;
13975;SDS011;7062;49.792;9.946;2023-11-19T07:04:14;0.57;;;0.57;;
13975;SDS011;7062;49.792;9.946;2023-11-19T07:06:39;0.50;;;0.50;;
13975;SDS011;7062;49.792;9.946;2023-11-19T07:09:08;1.97;;;0.50;;
13975;SDS011;7062;49.792;9.946;2023-11-19T07:11:35;0.57;;;0.57;;
13975;SDS011;7062;49.792;9.946;2023-11-19T07:14:02;0.83;;;0.70;;
13975;SDS011;7062;49.792;9.946;2023-11-19T07:16:28;0.70;;;0.60;;
13975;SDS011;7062;49.792;9.946;2023-11-19T07:18:54;0.60;;;0.50;;
13975;SDS011;7062;49.792;9.946;2023-11-19T07:21:20;0.80;;;0.53;;
13975;SDS011;7062;49.792;9.946;2023-11-19T07:23:46;0.60;;;0.60;;
13975;SDS011;7062;49.792;9.946;2023-11-19T07:26:12;0.60;;;0.50;;
13975;SDS011;7062;49.792;9.946;2023-11-19T07:28:37;0.40;;;0.40;;
13975;SDS011;7062;49.792;9.946;2023-11-19T07:31:04;0.33;;;0.33;;
13975;SDS011;7062;49.792;9.946;2023-11-19T07:33:33;0.73;;;0.60;;
13975;SDS011;7062;49.792;9.946;2023-11-19T07:35:58;0.40;;;0.40;;
13975;SDS011;7062;49.792;9.946;2023-11-19T07:38:24;0.43;;;0.33;;
13975;SDS011;7062;49.792;9.946;2023-11-19T07:40:50;0.57;;;0.40;;
13975;SDS011;7062;49.792;9.946;2023-11-19T07:43:15;0.53;;;0.40;;
13975;SDS011;7062;49.792;9.946;2023-11-19T07:45:41;0.80;;;0.50;;
13975;SDS011;7062;49.792;9.946;2023-11-19T07:48:08;1.27;;;0.53;;
13975;SDS011;7062;49.792;9.946;2023-11-19T07:50:35;2.07;;;0.30;;
13975;SDS011;7062;49.792;9.946;2023-11-19T07:53:01;0.30;;;0.30;;
13975;SDS011;7062;49.792;9.946;2023-11-19T07:55:29;0.80;;;0.30;;
13975;SDS011;7062;49.792;9.946;2023-11-19T07:57:55;0.20;;;0.20;;
13975;SDS011;7062;49.792;9.946;2023-11-19T08:00:21;0.50;;;0.50;;
13975;SDS011;7062;49.792;9.946;2023-11-19T08:02:47;0.30;;;0.30;;
13975;SDS011;7062;49.792;9.946;2023-11-19T08:05:12;0.37;;;0.37;;
13975;SDS011;7062;49.792;9.946;2023-11-19T08:07:38;0.40;;;0.40;;
13975;SDS011;7062;49.792;9.946;2023-11-19T08:10:04;0.67;;;0.67;;
13975;SDS011;7062;49.792;9.946;2023-11-19T08:12:30;0.80;;;0.80;;
13975;SDS011;7062;49.792;9.946;2023-11-19T08:14:56;1.13;;;0.43;;
13975;SDS011;7062;49.792;9.946;2023-11-19T08:17:23;0.40;;;0.40;;
13975;SDS011;7062;49.792;9.946;2023-11-19T08:19:49;0.80;;;0.70;;
13975;SDS011;7062;49.792;9.946;2023-11-19T08:22:15;1.33;;;0.70;;
13975;SDS011;7062;49.792;9.946;2023-11-19T08:24:42;1.43;;;0.90;;
13975;SDS011;7062;49.792;9.946;2023-11-19T08:27:08;2.60;;;0.70;;
13975;SDS011;7062;49.792;9.946;2023-11-19T08:29:34;0.87;;;0.80;;
13975;SDS011;7062;49.792;9.946;2023-11-19T08:32:02;2.53;;;1.00;;
13975;SDS011;7062;49.792;9.946;2023-11-19T08:34:28;0.93;;;0.80;;
13975;SDS011;7062;49.792;9.946;2023-11-19T08:36:54;2.33;;;1.23;;
13975;SDS011;7062;49.792;9.946;2023-11-19T08:39:20;1.53;;;1.13;;
13975;SDS011;7062;49.792;9.946;2023-11-19T08:41:47;1.37;;;1.13;;
13975;SDS011;7062;49.792;9.946;2023-11-19T08:44:13;1.03;;;0.87;;
13975;SDS011;7062;49.792;9.946;2023-11-19T08:46:39;3.60;;;2.20;;
13975;SDS011;7062;49.792;9.946;2023-11-19T08:49:12;1.73;;;1.53;;
13975;SDS011;7062;49.792;9.946;2023-11-19T08:51:38;1.20;;;0.80;;
13975;SDS011;7062;49.792;9.946;2023-11-19T08:54:03;1.53;;;1.07;;
13975;SDS011;7062;49.792;9.946;2023-11-19T08:56:29;1.00;;;0.70;;
13975;SDS011;7062;49.792;9.946;2023-11-19T08:58:57;3.30;;;0.90;;
13975;SDS011;7062;49.792;9.946;2023-11-19T09:01:23;1.97;;;1.10;;
13975;SDS011;7062;49.792;9.946;2023-11-19T09:03:49;3.13;;;1.00;;
13975;SDS011;7062;49.792;9.946;2023-11-19T09:06:15;1.30;;;1.10;;
13975;SDS011;7062;49.792;9.946;2023-11-19T09:08:42;2.77;;;1.10;;
13975;SDS011;7062;49.792;9.946;2023-11-19T09:11:07;2.37;;;0.80;;
13975;SDS011;7062;49.792;9.946;2023-11-19T09:13:34;3.37;;;1.10;;
13975;SDS011;7062;49.792;9.946;2023-11-19T09:16:00;2.47;;;1.60;;
13975;SDS011;7062;49.792;9.946;2023-11-19T09:18:28;1.20;;;1.00;;
13975;SDS011;7062;49.792;9.946;2023-11-19T09:20:54;3.57;;;1.30;;
13975;SDS011;7062;49.792;9.946;2023-11-19T09:23:20;2.07;;;0.90;;
13975;SDS011;7062;49.792;9.946;2023-11-19T09:25:46;6.53;;;1.03;;
13975;SDS011;7062;49.792;9.946;2023-11-19T09:28:11;1.43;;;0.70;;
13975;SDS011;7062;49.792;9.946;2023-11-19T09:30:39;3.97;;;0.90;;
13975;SDS011;7062;49.792;9.946;2023-11-19T09:33:05;1.20;;;0.97;;
13975;SDS011;7062;49.792;9.946;2023-11-19T09:35:30;1.63;;;0.80;;
13975;SDS011;7062;49.792;9.946;2023-11-19T09:37:56;1.20;;;0.73;;
13975;SDS011;7062;49.792;9.946;2023-11-19T09:40:22;2.13;;;0.87;;
13975;SDS011;7062;49.792;9.946;2023-11-19T09:42:48;0.83;;;0.57;;
13975;SDS011;7062;49.792;9.946;2023-11-19T09:45:14;3.17;;;1.00;;
13975;SDS011;7062;49.792;9.946;2023-11-19T09:47:44;1.93;;;0.80;;
13975;SDS011;7062;49.792;9.946;2023-11-19T09:50:17;1.83;;;0.60;;
13975;SDS011;7062;49.792;9.946;2023-11-19T09:52:45;1.27;;;0.70;;
13975;SDS011;7062;49.792;9.946;2023-11-19T09:55:11;2.63;;;0.87;;
13975;SDS011;7062;49.792;9.946;2023-11-19T09:57:38;1.37;;;0.73;;
13975;SDS011;7062;49.792;9.946;2023-11-19T10:00:05;1.70;;;0.80;;
13975;SDS011;7062;49.792;9.946;2023-11-19T10:02:33;2.83;;;1.13;;
13975;SDS011;7062;49.792;9.946;2023-11-19T10:05:02;2.20;;;0.77;;
13975;SDS011;7062;49.792;9.946;2023-11-19T10:07:30;1.03;;;0.67;;
13975;SDS011;7062;49.792;9.946;2023-11-19T10:09:58;4.10;;;0.80;;
13975;SDS011;7062;49.792;9.946;2023-11-19T10:12:29;2.73;;;0.90;;
13975;SDS011;7062;49.792;9.946;2023-11-19T10:14:56;3.60;;;1.20;;
13975;SDS011;7062;49.792;9.946;2023-11-19T10:17:28;3.13;;;0.60;;
13975;SDS011;7062;49.792;9.946;2023-11-19T10:19:54;2.20;;;0.80;;
13975;SDS011;7062;49.792;9.946;2023-11-19T10:22:22;4.37;;;1.00;;
13975;SDS011;7062;49.792;9.946;2023-11-19T10:24:48;2.30;;;0.83;;
13975;SDS011;7062;49.792;9.946;2023-11-19T10:27:14;2.03;;;1.47;;
13975;SDS011;7062;49.792;9.946;2023-11-19T10:29:40;1.93;;;1.00;;
13975;SDS011;7062;49.792;9.946;2023-11-19T10:32:12;3.80;;;0.70;;
13975;SDS011;7062;49.792;9.946;2023-11-19T10:34:39;1.30;;;0.70;;
13975;SDS011;7062;49.792;9.946;2023-11-19T10:37:06;3.03;;;0.70;;
13975;SDS011;7062;49.792;9.946;2023-11-19T10:39:51;2.97;;;0.83;;
13975;SDS011;7062;49.792;9.946;2023-11-19T10:42:20;2.80;;;0.70;;
13975;SDS011;7062;49.792;9.946;2023-11-19T10:44:47;3.00;;;0.87;;
13975;SDS011;7062;49.792;9.946;2023-11-19T10:47:15;2.87;;;0.80;;
13975;SDS011;7062;49.792;9.946;2023-11-19T10:49:44;2.40;;;0.93;;
13975;SDS011;7062;49.792;9.946;2023-11-19T10:52:11;1.50;;;0.70;;
13975;SDS011;7062;49.792;9.946;2023-11-19T10:54:41;2.73;;;0.93;;
13975;SDS011;7062;49.792;9.946;2023-11-19T10:57:11;2.00;;;0.40;;
13975;SDS011;7062;49.792;9.946;2023-11-19T10:59:44;9.20;;;1.10;;
13975;SDS011;7062;49.792;9.946;2023-11-19T11:02:11;0.67;;;0.37;;
13975;SDS011;7062;49.792;9.946;2023-11-19T11:04:42;1.50;;;0.63;;
13975;SDS011;7062;49.792;9.946;2023-11-19T11:07:08;2.40;;;0.80;;
13975;SDS011;7062;49.792;9.946;2023-11-19T11:09:34;2.80;;;0.77;;
13975;SDS011;7062;49.792;9.946;2023-11-19T11:12:00;2.40;;;0.80;;
13975;SDS011;7062;49.792;9.946;2023-11-19T11:14:26;2.40;;;0.93;;
13975;SDS011;7062;49.792;9.946;2023-11-19T11:16:53;4.20;;;1.00;;
13975;SDS011;7062;49.792;9.946;2023-11-19T11:19:21;3.47;;;1.30;;
13975;SDS011;7062;49.792;9.946;2023-11-19T11:21:49;4.13;;;1.30;;
13975;SDS011;7062;49.792;9.946;2023-11-19T11:24:38;4.30;;;1.30;;
13975;SDS011;7062;49.792;9.946;2023-11-19T11:33:24;2.23;;;0.70;;
13975;SDS011;7062;49.792;9.946;2023-11-19T11:36:19;2.37;;;0.80;;
13975;SDS011;7062;49.792;9.946;2023-11-19T11:38:48;2.90;;;0.83;;
13975;SDS011;7062;49.792;9.946;2023-11-19T11:41:15;2.43;;;0.70;;
13975;SDS011;7062;49.792;9.946;2023-11-19T11:43:53;0.97;;;0.70;;
13975;SDS011;7062;49.792;9.946;2023-11-19T11:49:06;1.27;;;0.73;;
13975;SDS011;7062;49.792;9.946;2023-11-19T11:52:05;2.03;;;0.80;;
13975;SDS011;7062;49.792;9.946;2023-11-19T11:57:13;1.37;;;0.73;;
13975;SDS011;7062;49.792;9.946;2023-11-19T12:02:10;1.60;;;1.10;;
13975;SDS011;7062;49.792;9.946;2023-11-19T12:04:38;1.40;;;0.70;;
13975;SDS011;7062;49.792;9.946;2023-11-19T12:07:06;2.60;;;0.70;;
13975;SDS011;7062;49.792;9.946;2023-11-19T12:09:42;1.60;;;0.60;;
13975;SDS011;7062;49.792;9.946;2023-11-19T12:12:21;4.63;;;0.80;;
13975;SDS011;7062;49.792;9.946;2023-11-19T12:20:01;3.40;;;0.70;;
13975;SDS011;7062;49.792;9.946;2023-11-19T12:22:31;2.27;;;0.70;;
13975;SDS011;7062;49.792;9.946;2023-11-19T12:24:56;1.10;;;0.50;;
13975;SDS011;7062;49.792;9.946;2023-11-19T12:27:23;3.30;;;0.80;;
13975;SDS011;7062;49.792;9.946;2023-11-19T12:29:48;1.20;;;0.53;;
13975;SDS011;7062;49.792;9.946;2023-11-19T12:32:15;2.67;;;0.70;;
13975;SDS011;7062;49.792;9.946;2023-11-19T12:34:40;1.50;;;0.80;;
13975;SDS011;7062;49.792;9.946;2023-11-19T12:37:06;3.67;;;0.83;;
13975;SDS011;7062;49.792;9.946;2023-11-19T12:39:34;2.37;;;0.83;;
13975;SDS011;7062;49.792;9.946;2023-11-19T12:42:00;1.83;;;0.70;;
13975;SDS011;7062;49.792;9.946;2023-11-19T12:44:26;4.40;;;0.93;;
13975;SDS011;7062;49.792;9.946;2023-11-19T12:47:05;2.23;;;0.80;;
13975;SDS011;7062;49.792;9.946;2023-11-19T12:49:34;2.03;;;0.80;;
13975;SDS011;7062;49.792;9.946;2023-11-19T12:52:00;2.23;;;1.00;;
13975;SDS011;7062;49.792;9.946;2023-11-19T12:54:35;3.33;;;0.90;;
13975;SDS011;7062;49.792;9.946;2023-11-19T12:57:02;3.70;;;0.90;;
13975;SDS011;7062;49.792;9.946;2023-11-19T12:59:30;4.30;;;1.00;;
13975;SDS011;7062;49.792;9.946;2023-11-19T13:01:56;3.37;;;0.87;;
13975;SDS011;7062;49.792;9.946;2023-11-19T13:04:23;2.33;;;0.90;;
13975;SDS011;7062;49.792;9.946;2023-11-19T13:06:52;12.00;;;1.33;;
13975;SDS011;7062;49.792;9.946;2023-11-19T13:09:24;2.90;;;0.90;;
13975;SDS011;7062;49.792;9.946;2023-11-19T13:11:54;3.90;;;0.90;;
13975;SDS011;7062;49.792;9.946;2023-11-19T13:14:21;5.77;;;1.30;;
13975;SDS011;7062;49.792;9.946;2023-11-19T13:16:47;5.60;;;1.13;;
13975;SDS011;7062;49.792;9.946;2023-11-19T13:19:14;1.20;;;0.60;;
13975;SDS011;7062;49.792;9.946;2023-11-19T13:21:43;0.67;;;0.57;;
13975;SDS011;7062;49.792;9.946;2023-11-19T13:24:12;1.43;;;0.93;;
13975;SDS011;7062;49.792;9.946;2023-11-19T13:26:38;4.03;;;1.30;;
13975;SDS011;7062;49.792;9.946;2023-11-19T13:29:04;3.37;;;0.93;;
13975;SDS011;7062;49.792;9.946;2023-11-19T13:31:30;5.10;;;0.80;;
13975;SDS011;7062;49.792;9.946;2023-11-19T13:33:55;2.20;;;0.77;;
13975;SDS011;7062;49.792;9.946;2023-11-19T13:36:23;3.67;;;1.33;;
13975;SDS011;7062;49.792;9.946;2023-11-19T13:38:50;2.47;;;0.93;;
13975;SDS011;7062;49.792;9.946;2023-11-19T13:41:16;4.67;;;1.10;;
13975;SDS011;7062;49.792;9.946;2023-11-19T13:43:42;3.30;;;0.80;;
13975;SDS011;7062;49.792;9.946;2023-11-19T13:46:09;2.57;;;0.60;;
13975;SDS011;7062;49.792;9.946;2023-11-19T13:48:37;2.00;;;0.70;;
13975;SDS011;7062;49.792;9.946;2023-11-19T13:51:03;2.90;;;1.20;;
13975;SDS011;7062;49.792;9.946;2023-11-19T13:53:29;5.77;;;1.20;;
13975;SDS011;7062;49.792;9.946;2023-11-19T13:55:54;4.57;;;0.90;;
13975;SDS011;7062;49.792;9.946;2023-11-19T13:58:20;5.00;;;1.50;;
13975;SDS011;7062;49.792;9.946;2023-11-19T14:00:46;2.70;;;0.60;;
13975;SDS011;7062;49.792;9.946;2023-11-19T14:03:12;3.53;;;1.27;;
13975;SDS011;7062;49.792;9.946;2023-11-19T14:05:38;3.83;;;0.70;;
13975;SDS011;7062;49.792;9.946;2023-11-19T14:08:04;3.53;;;1.37;;
13975;SDS011;7062;49.792;9.946;2023-11-19T14:10:39;2.50;;;0.80;;
13975;SDS011;7062;49.792;9.946;2023-11-19T14:13:05;3.87;;;1.10;;
13975;SDS011;7062;49.792;9.946;2023-11-19T14:15:31;4.93;;;1.10;;
13975;SDS011;7062;49.792;9.946;2023-11-19T14:17:57;2.83;;;0.80;;
13975;SDS011;7062;49.792;9.946;2023-11-19T14:20:23;3.43;;;0.90;;
13975;SDS011;7062;49.792;9.946;2023-11-19T14:22:49;3.53;;;0.90;;
13975;SDS011;7062;49.792;9.946;2023-11-19T14:25:16;2.43;;;1.27;;
13975;SDS011;7062;49.792;9.946;2023-11-19T14:27:42;2.93;;;0.80;;
13975;SDS011;7062;49.792;9.946;2023-11-19T14:30:09;3.07;;;0.90;;
13975;SDS011;7062;49.792;9.946;2023-11-19T14:32:37;4.70;;;1.17;;
13975;SDS011;7062;49.792;9.946;2023-11-19T14:35:06;4.13;;;1.03;;
13975;SDS011;7062;49.792;9.946;2023-11-19T14:37:32;2.30;;;1.00;;
13975;SDS011;7062;49.792;9.946;2023-11-19T14:39:59;5.57;;;1.10;;
13975;SDS011;7062;49.792;9.946;2023-11-19T14:42:25;4.17;;;1.00;;
13975;SDS011;7062;49.792;9.946;2023-11-19T14:44:51;2.93;;;1.40;;
13975;SDS011;7062;49.792;9.946;2023-11-19T14:47:20;5.20;;;0.90;;
13975;SDS011;7062;49.792;9.946;2023-11-19T14:49:46;7.40;;;1.13;;
13975;SDS011;7062;49.792;9.946;2023-11-19T14:52:13;4.50;;;0.97;;
13975;SDS011;7062;49.792;9.946;2023-11-19T14:54:38;6.10;;;1.00;;
13975;SDS011;7062;49.792;9.946;2023-11-19T14:57:05;1.13;;;1.00;;
13975;SDS011;7062;49.792;9.946;2023-11-19T14:59:33;2.73;;;1.13;;
13975;SDS011;7062;49.792;9.946;2023-11-19T15:01:59;2.70;;;1.00;;
13975;SDS011;7062;49.792;9.946;2023-11-19T15:04:25;2.53;;;0.87;;
13975;SDS011;7062;49.792;9.946;2023-11-19T15:06:52;2.53;;;0.70;;
13975;SDS011;7062;49.792;9.946;2023-11-19T15:09:17;2.30;;;1.20;;
13975;SDS011;7062;49.792;9.946;2023-11-19T15:11:46;4.67;;;1.33;;
13975;SDS011;7062;49.792;9.946;2023-11-19T15:14:12;1.57;;;0.60;;
13975;SDS011;7062;49.792;9.946;2023-11-19T15:16:44;3.87;;;1.30;;
13975;SDS011;7062;49.792;9.946;2023-11-19T15:19:10;7.87;;;1.10;;